Time;durP1;ratioP1;P1;durP2;ratioP2;P2;SDS_P1;SDS_P2;PMS_P1;PMS_P2;Temp;Humidity;BMP_temperature;BMP_pressure;BME280_temperature;BME280_humidity;BME280_pressure;Samples;Min_cycle;Max_cycle;Signal;HPM_P1;HPM_P2
2023/09/12 00:00:48;;;;;;;106.15;59.65;;;19.10;99.90;;;;;;5093364;28;20377;-67
2023/09/12 01:37:34;;;;;;;189.88;85.78;;;18.70;99.90;;;;;;5115109;28;20054;-65
2023/09/12 01:39:59;;;;;;;212.20;86.95;;;18.60;99.90;;;;;;5115995;28;20067;-64
2023/09/12 01:42:29;;;;;;;206.25;89.43;;;18.70;99.90;;;;;;5116119;28;20070;-65
2023/09/12 01:44:56;;;;;;;209.07;91.30;;;18.70;99.90;;;;;;5116059;28;20062;-64
2023/09/12 01:47:23;;;;;;;182.20;83.80;;;18.70;99.90;;;;;;5116271;28;20522;-65
2023/09/12 01:49:52;;;;;;;183.50;85.40;;;18.70;99.90;;;;;;5110534;28;20046;-65
2023/09/12 01:52:19;;;;;;;185.38;86.13;;;18.70;99.90;;;;;;5099607;28;20119;-66
2023/09/12 01:54:47;;;;;;;180.45;81.20;;;18.70;99.90;;;;;;5095628;28;20020;-65
2023/09/12 01:57:13;;;;;;;194.15;84.95;;;18.70;99.90;;;;;;5095647;28;20059;-66
2023/09/12 01:59:39;;;;;;;184.73;85.45;;;18.70;99.90;;;;;;5095535;28;20081;-66
2023/09/12 02:02:04;;;;;;;180.48;82.57;;;18.60;99.90;;;;;;5095248;28;20040;-65
2023/09/12 02:04:30;;;;;;;192.98;85.70;;;18.60;99.90;;;;;;5095443;28;20484;-65
2023/09/12 02:06:55;;;;;;;181.35;81.82;;;18.70;99.90;;;;;;5095222;28;20471;-68
2023/09/12 02:09:21;;;;;;;169.20;79.53;;;18.60;99.90;;;;;;5100662;28;20032;-66
2023/09/12 02:11:49;;;;;;;173.85;79.65;;;18.60;99.90;;;;;;5095245;28;20054;-65
2023/09/12 02:14:14;;;;;;;182.48;80.20;;;18.60;99.90;;;;;;5095100;28;20036;-66
2023/09/12 02:16:40;;;;;;;169.10;73.35;;;18.60;99.90;;;;;;5094985;28;20027;-66
2023/09/12 02:19:06;;;;;;;160.70;74.43;;;18.60;99.90;;;;;;5095401;28;20077;-66
2023/09/12 02:21:32;;;;;;;159.18;73.72;;;18.60;99.90;;;;;;5094963;28;20111;-65
2023/09/12 02:23:57;;;;;;;161.45;75.32;;;18.60;99.90;;;;;;5095016;28;20173;-65
2023/09/12 02:26:23;;;;;;;161.32;75.07;;;18.70;99.90;;;;;;5094965;28;20523;-65
2023/09/12 02:28:49;;;;;;;172.48;75.03;;;18.60;99.90;;;;;;5101476;28;20025;-66
2023/09/12 02:31:14;;;;;;;175.07;77.03;;;18.60;99.90;;;;;;5094795;28;20188;-66
2023/09/12 02:33:40;;;;;;;172.23;75.40;;;18.70;99.90;;;;;;5093656;28;20161;-67
2023/09/12 02:36:06;;;;;;;172.95;77.50;;;18.70;99.90;;;;;;5094387;28;20106;-66
2023/09/12 02:38:32;;;;;;;183.13;80.63;;;18.70;99.90;;;;;;5094375;28;20131;-65
2023/09/12 02:40:58;;;;;;;174.57;79.18;;;18.70;99.90;;;;;;5094929;28;20169;-66
2023/09/12 02:43:23;;;;;;;175.02;77.97;;;18.70;99.90;;;;;;5094658;28;20028;-66
2023/09/12 02:45:49;;;;;;;165.90;76.95;;;18.60;99.90;;;;;;5094351;28;20034;-66
2023/09/12 02:48:15;;;;;;;160.68;75.45;;;18.70;99.90;;;;;;5099527;28;20032;-66
2023/09/12 02:50:40;;;;;;;160.07;76.60;;;18.60;99.90;;;;;;5094559;28;20028;-66
2023/09/12 02:53:06;;;;;;;140.50;68.55;;;18.60;99.90;;;;;;5094656;28;20047;-66
2023/09/12 02:55:32;;;;;;;141.75;70.20;;;18.60;99.90;;;;;;5094488;28;20457;-65
2023/09/12 02:57:58;;;;;;;137.77;66.55;;;18.60;99.90;;;;;;5094461;28;20031;-65
2023/09/12 03:00:23;;;;;;;138.07;67.60;;;18.60;99.90;;;;;;5094273;28;20024;-66
2023/09/12 03:02:49;;;;;;;149.70;69.95;;;18.60;99.90;;;;;;5094404;28;20460;-66
2023/09/12 03:05:14;;;;;;;152.98;67.15;;;18.50;99.90;;;;;;5103920;28;20038;-66
2023/09/12 03:07:40;;;;;;;153.88;71.10;;;18.50;99.90;;;;;;5114597;28;20050;-64
2023/09/12 03:10:06;;;;;;;143.95;68.35;;;18.50;99.90;;;;;;5114825;28;20020;-65
2023/09/12 03:12:31;;;;;;;157.48;69.38;;;18.40;99.90;;;;;;5114192;28;20036;-66
2023/09/12 03:14:57;;;;;;;156.45;70.93;;;18.40;99.90;;;;;;5114394;28;20359;-65
2023/09/12 03:17:22;;;;;;;149.18;69.50;;;18.40;99.90;;;;;;5114784;28;20024;-65
2023/09/12 03:19:48;;;;;;;136.60;64.78;;;18.40;99.90;;;;;;5112511;28;20031;-65
2023/09/12 03:22:14;;;;;;;134.82;65.53;;;18.40;99.90;;;;;;5110287;28;20023;-66
2023/09/12 03:24:39;;;;;;;130.15;63.60;;;18.30;99.90;;;;;;5105043;28;20024;-67
2023/09/12 03:27:05;;;;;;;124.82;61.88;;;18.40;99.90;;;;;;5093940;28;20051;-65
2023/09/12 03:29:30;;;;;;;123.13;60.47;;;18.30;99.90;;;;;;5093937;28;20383;-64
2023/09/12 03:31:56;;;;;;;125.15;61.08;;;18.30;99.90;;;;;;5093760;28;20069;-65
2023/09/12 03:34:21;;;;;;;120.40;61.25;;;18.30;99.90;;;;;;5093662;28;20032;-65
2023/09/12 03:36:47;;;;;;;126.07;59.42;;;18.30;99.90;;;;;;5093674;28;20129;-64
2023/09/12 03:39:13;;;;;;;127.82;61.67;;;18.30;99.90;;;;;;5093398;28;20048;-63
2023/09/12 03:41:39;;;;;;;125.93;60.83;;;18.30;99.90;;;;;;5104890;28;20032;-65
2023/09/12 03:44:05;;;;;;;124.53;60.60;;;18.20;99.90;;;;;;5113774;28;20027;-65
2023/09/12 03:46:30;;;;;;;128.23;61.40;;;18.30;99.90;;;;;;5113735;28;20027;-66
2023/09/12 03:48:56;;;;;;;121.72;59.50;;;18.20;99.90;;;;;;5113716;28;20435;-65
2023/09/12 03:51:21;;;;;;;116.90;57.72;;;18.20;99.90;;;;;;5113731;28;20080;-65
2023/09/12 03:53:49;;;;;;;120.13;58.75;;;18.20;99.90;;;;;;5113545;28;20081;-66
2023/09/12 03:56:15;;;;;;;112.72;55.60;;;18.30;99.90;;;;;;5112680;28;20510;-66
2023/09/12 03:58:41;;;;;;;120.65;57.28;;;18.30;99.90;;;;;;5107832;28;20024;-65
2023/09/12 04:01:06;;;;;;;113.95;55.42;;;18.30;99.90;;;;;;5113786;28;20020;-66
2023/09/12 04:03:32;;;;;;;112.68;56.15;;;18.40;99.90;;;;;;5113584;28;20120;-65
2023/09/12 04:05:57;;;;;;;123.85;57.08;;;18.40;99.90;;;;;;5113877;28;20089;-66
2023/09/12 04:08:23;;;;;;;110.65;53.50;;;18.40;99.90;;;;;;5114012;28;20031;-65
2023/09/12 04:10:48;;;;;;;114.40;54.08;;;18.50;99.90;;;;;;5113733;28;20072;-65
2023/09/12 04:13:14;;;;;;;103.55;52.90;;;18.50;99.90;;;;;;5113737;28;20035;-66
2023/09/12 04:15:39;;;;;;;94.30;50.50;;;18.60;99.90;;;;;;5113576;28;20024;-66
2023/09/12 04:18:05;;;;;;;100.80;53.10;;;18.60;99.90;;;;;;5113759;28;20027;-66
2023/09/12 04:20:31;;;;;;;109.10;53.78;;;18.60;99.90;;;;;;5113931;28;20028;-65
2023/09/12 04:22:56;;;;;;;104.50;53.60;;;18.60;99.90;;;;;;5113742;28;20434;-65
2023/09/12 04:25:22;;;;;;;107.28;54.33;;;18.60;99.90;;;;;;5113684;28;20028;-66
2023/09/12 04:27:47;;;;;;;119.32;55.80;;;18.60;99.90;;;;;;5113623;28;20375;-65
2023/09/12 04:30:13;;;;;;;113.25;57.50;;;18.60;99.90;;;;;;5113698;28;20034;-65
2023/09/12 04:32:38;;;;;;;110.93;54.85;;;18.60;99.90;;;;;;5113129;28;20387;-65
2023/09/12 04:35:04;;;;;;;112.45;55.25;;;18.60;99.90;;;;;;5113298;28;20094;-66
2023/09/12 04:37:30;;;;;;;105.00;52.63;;;18.60;99.90;;;;;;5112031;28;20039;-65
2023/09/12 04:39:56;;;;;;;93.72;49.58;;;18.60;99.90;;;;;;5113152;28;20055;-66
2023/09/12 04:42:22;;;;;;;92.05;47.72;;;18.70;99.90;;;;;;5113877;28;20112;-65
2023/09/12 04:44:48;;;;;;;109.80;51.30;;;18.60;99.90;;;;;;5113433;28;20121;-66
2023/09/12 04:47:14;;;;;;;114.10;54.28;;;18.70;99.90;;;;;;5113304;28;20077;-65
2023/09/12 04:49:40;;;;;;;117.13;56.35;;;18.70;99.90;;;;;;5113582;28;20031;-65
2023/09/12 04:52:06;;;;;;;120.50;56.13;;;18.70;99.90;;;;;;5113243;28;20558;-65
2023/09/12 04:54:31;;;;;;;120.78;54.67;;;18.70;99.90;;;;;;5113802;28;20111;-65
2023/09/12 04:56:57;;;;;;;112.72;55.03;;;18.70;99.90;;;;;;5113335;28;20055;-65
2023/09/12 04:59:23;;;;;;;113.30;54.92;;;18.70;99.90;;;;;;5113447;28;20028;-64
2023/09/12 05:01:49;;;;;;;121.28;54.83;;;18.70;99.90;;;;;;5107799;28;20063;-65
2023/09/12 05:04:14;;;;;;;120.22;54.95;;;18.70;99.90;;;;;;5113003;28;20085;-66
2023/09/12 05:06:40;;;;;;;116.72;54.22;;;18.70;99.90;;;;;;5113383;28;20080;-66
2023/09/12 05:09:08;;;;;;;114.63;54.08;;;18.70;99.90;;;;;;5112056;28;20027;-65
2023/09/12 05:11:34;;;;;;;114.93;54.28;;;18.80;99.90;;;;;;5116313;28;20023;-65
2023/09/12 05:14:00;;;;;;;126.95;55.88;;;18.80;99.90;;;;;;5117058;28;20038;-66
2023/09/12 05:16:25;;;;;;;114.65;52.63;;;18.80;99.90;;;;;;5116611;28;20028;-66
2023/09/12 05:18:51;;;;;;;119.95;53.65;;;18.80;99.90;;;;;;5116957;28;20463;-65
2023/09/12 05:21:17;;;;;;;118.43;53.78;;;18.80;99.90;;;;;;5116916;28;20019;-65
2023/09/12 05:23:42;;;;;;;127.55;55.15;;;18.80;99.90;;;;;;5116616;28;20031;-65
2023/09/12 05:26:08;;;;;;;121.78;53.42;;;18.70;99.90;;;;;;5116607;28;20042;-66
2023/09/12 05:28:34;;;;;;;121.72;55.05;;;18.70;99.90;;;;;;5116752;28;20468;-65
2023/09/12 05:30:59;;;;;;;123.82;54.17;;;18.70;99.90;;;;;;5116020;28;20026;-66
2023/09/12 05:33:25;;;;;;;120.75;53.88;;;18.70;99.90;;;;;;5116349;28;20040;-65
2023/09/12 05:35:50;;;;;;;133.52;55.35;;;18.70;99.90;;;;;;5116210;28;20027;-66
2023/09/12 05:38:16;;;;;;;125.15;54.92;;;18.70;99.90;;;;;;5115316;28;20040;-66
2023/09/12 05:40:41;;;;;;;130.10;54.92;;;18.70;99.90;;;;;;5111753;28;20084;-66
2023/09/12 05:43:07;;;;;;;118.18;53.92;;;18.70;99.90;;;;;;5116253;28;20027;-65
2023/09/12 05:45:33;;;;;;;119.70;54.40;;;18.70;99.90;;;;;;5115835;28;20459;-65
2023/09/12 05:48:00;;;;;;;124.28;54.92;;;18.80;99.90;;;;;;5115373;28;20046;-66
2023/09/12 05:50:25;;;;;;;122.78;53.90;;;18.80;99.90;;;;;;5116101;28;20038;-65
2023/09/12 05:52:51;;;;;;;131.18;55.17;;;18.80;99.90;;;;;;5115952;28;20039;-65
2023/09/12 05:55:17;;;;;;;123.47;54.50;;;18.80;99.90;;;;;;5116208;28;20446;-66
2023/09/12 05:57:43;;;;;;;118.38;52.60;;;18.80;99.90;;;;;;5115917;28;20042;-65
2023/09/12 06:00:11;;;;;;;127.75;52.67;;;18.80;99.90;;;;;;5115570;28;20467;-65
2023/09/12 06:02:42;;;;;;;123.15;54.58;;;18.80;99.90;;;;;;5115752;28;20568;-65
2023/09/12 06:05:08;;;;;;;130.73;54.63;;;18.90;99.90;;;;;;5114503;28;20400;-65
2023/09/12 06:07:34;;;;;;;119.65;51.88;;;18.90;99.90;;;;;;5110730;28;20032;-65
2023/09/12 06:09:59;;;;;;;122.45;51.92;;;18.90;99.90;;;;;;5115730;28;20039;-66
2023/09/12 06:12:25;;;;;;;117.72;52.67;;;19.00;99.90;;;;;;5114310;28;20046;-67
2023/09/12 06:14:53;;;;;;;116.55;50.55;;;19.10;99.90;;;;;;5115475;28;20023;-67
2023/09/12 06:17:18;;;;;;;117.75;52.42;;;19.10;99.90;;;;;;5106942;28;20031;-66
2023/09/12 06:19:44;;;;;;;119.65;49.53;;;19.20;99.90;;;;;;5113441;28;20042;-66
2023/09/12 06:22:09;;;;;;;119.15;50.63;;;19.20;99.90;;;;;;5113493;28;20589;-66
2023/09/12 06:24:35;;;;;;;114.85;50.08;;;19.30;99.90;;;;;;5114472;28;20548;-65
2023/09/12 06:27:00;;;;;;;115.20;50.42;;;19.30;99.90;;;;;;5114274;28;20460;-65
2023/09/12 06:29:26;;;;;;;109.32;48.80;;;19.30;99.90;;;;;;5114034;28;20023;-66
2023/09/12 06:31:51;;;;;;;112.45;48.45;;;19.40;99.90;;;;;;5093423;28;20402;-66
2023/09/12 06:34:17;;;;;;;119.18;49.53;;;19.50;99.90;;;;;;5094261;28;20392;-65
2023/09/12 06:36:44;;;;;;;105.65;49.10;;;19.50;99.90;;;;;;5112862;28;20076;-65
2023/09/12 06:39:10;;;;;;;105.05;45.90;;;19.60;99.90;;;;;;5113939;28;20059;-65
2023/09/12 06:41:36;;;;;;;103.00;45.22;;;19.60;99.90;;;;;;5097960;28;20115;-66
2023/09/12 06:44:02;;;;;;;103.28;43.92;;;19.60;99.90;;;;;;5094171;28;20038;-67
2023/09/12 06:46:28;;;;;;;116.28;46.10;;;19.70;99.90;;;;;;5094878;28;20031;-66
2023/09/12 06:48:54;;;;;;;104.88;45.65;;;19.60;99.90;;;;;;5094711;28;20376;-65
2023/09/12 06:51:23;;;;;;;104.55;46.13;;;19.70;99.90;;;;;;5094319;28;20093;-65
2023/09/12 06:53:49;;;;;;;100.72;45.72;;;19.80;99.90;;;;;;5094530;28;20035;-65
2023/09/12 06:56:14;;;;;;;112.65;47.13;;;19.80;99.90;;;;;;5093953;28;20024;-65
2023/09/12 06:58:40;;;;;;;106.53;46.20;;;19.80;99.90;;;;;;5093947;28;20027;-65
2023/09/12 07:01:06;;;;;;;109.97;46.72;;;19.80;99.90;;;;;;5109706;28;20031;-67
2023/09/12 07:03:33;;;;;;;98.22;43.65;;;20.00;99.90;;;;;;5114381;28;20106;-65
2023/09/12 07:05:59;;;;;;;94.68;44.40;;;20.10;99.90;;;;;;5114377;28;20379;-66
2023/09/12 07:08:25;;;;;;;99.90;44.30;;;20.30;99.90;;;;;;5114521;28;20019;-66
2023/09/12 07:10:50;;;;;;;93.22;42.22;;;20.40;99.90;;;;;;5114317;28;20028;-66
2023/09/12 07:13:16;;;;;;;90.32;42.40;;;20.50;99.90;;;;;;5113220;28;20042;-66
2023/09/12 07:15:42;;;;;;;92.63;42.03;;;20.50;99.90;;;;;;5114581;28;20119;-66
2023/09/12 07:18:07;;;;;;;83.97;40.75;;;20.50;99.90;;;;;;5114303;27;20043;-66
2023/09/12 07:20:34;;;;;;;78.65;39.45;;;20.70;99.90;;;;;;5114576;28;20024;-65
2023/09/12 07:23:00;;;;;;;86.88;41.75;;;20.80;99.90;;;;;;5114201;28;20046;-66
2023/09/12 07:25:25;;;;;;;79.75;38.13;;;20.90;99.90;;;;;;5114036;28;20383;-66
2023/09/12 07:27:51;;;;;;;69.95;37.40;;;21.00;99.90;;;;;;5113400;28;20023;-66
2023/09/12 07:30:17;;;;;;;77.72;38.47;;;21.10;99.90;;;;;;5113528;28;20039;-66
2023/09/12 07:32:43;;;;;;;74.20;38.80;;;21.20;99.90;;;;;;5113582;28;20031;-66
2023/09/12 07:35:09;;;;;;;75.53;39.53;;;21.30;99.90;;;;;;5113038;28;20027;-66
2023/09/12 07:37:34;;;;;;;79.35;39.42;;;21.20;99.90;;;;;;5113583;28;20387;-66
2023/09/12 07:40:00;;;;;;;74.90;39.55;;;21.20;99.90;;;;;;5114043;28;20016;-66
2023/09/12 07:42:25;;;;;;;72.68;37.63;;;21.20;99.90;;;;;;5113356;28;20050;-66
2023/09/12 07:44:51;;;;;;;75.78;38.53;;;21.20;99.90;;;;;;5113194;28;20026;-66
2023/09/12 07:47:17;;;;;;;70.85;36.55;;;21.30;99.90;;;;;;5114058;28;20023;-65
2023/09/12 07:49:43;;;;;;;67.57;36.45;;;21.40;99.90;;;;;;5114049;28;20031;-65
2023/09/12 07:52:08;;;;;;;71.22;38.10;;;21.60;99.90;;;;;;5113552;28;20115;-65
2023/09/12 07:54:34;;;;;;;64.55;36.35;;;21.70;99.90;;;;;;5112516;28;20039;-65
2023/09/12 07:57:00;;;;;;;65.53;34.75;;;21.80;99.90;;;;;;5113150;28;20053;-65
2023/09/12 07:59:25;;;;;;;70.43;36.63;;;21.70;99.90;;;;;;5113610;28;20065;-65
2023/09/12 08:01:51;;;;;;;65.70;36.53;;;21.70;99.90;;;;;;5113390;28;20336;-66
2023/09/12 08:04:17;;;;;;;68.45;37.75;;;21.70;99.90;;;;;;5112976;28;20119;-65
2023/09/12 08:06:43;;;;;;;65.97;35.67;;;21.80;99.90;;;;;;5113195;28;20027;-66
2023/09/12 08:09:09;;;;;;;65.18;35.55;;;21.80;99.90;;;;;;5113791;28;20103;-65
2023/09/12 08:11:36;;;;;;;60.45;35.10;;;21.90;99.90;;;;;;5112913;28;20111;-66
2023/09/12 08:14:01;;;;;;;60.78;34.75;;;22.00;99.90;;;;;;5113402;28;20039;-65
2023/09/12 08:16:27;;;;;;;60.75;34.53;;;22.20;99.90;;;;;;5110228;28;20032;-65
2023/09/12 08:18:53;;;;;;;65.95;34.97;;;22.30;99.90;;;;;;5111679;28;20464;-66
2023/09/12 08:21:18;;;;;;;64.72;34.58;;;22.40;99.90;;;;;;5113227;28;20020;-65
2023/09/12 08:23:44;;;;;;;51.80;28.33;;;22.50;99.90;;;;;;5113512;28;20024;-66
2023/09/12 08:26:11;;;;;;;52.70;32.22;;;22.60;99.90;;;;;;5112858;28;20035;-65
2023/09/12 08:28:37;;;;;;;51.08;30.20;;;22.70;99.90;;;;;;5094413;28;20103;-66
2023/09/12 08:31:03;;;;;;;51.35;29.10;;;22.90;99.90;;;;;;5093064;28;20105;-66
2023/09/12 08:33:29;;;;;;;51.58;29.88;;;23.20;99.90;;;;;;5092763;28;20032;-66
2023/09/12 08:35:54;;;;;;;41.78;26.98;;;23.70;99.90;;;;;;5100317;28;20016;-67
2023/09/12 08:38:20;;;;;;;43.67;26.75;;;24.00;99.90;;;;;;5111655;28;20054;-66
2023/09/12 08:40:50;;;;;;;44.88;25.17;;;24.40;99.90;;;;;;5111940;28;20035;-66
2023/09/12 08:43:16;;;;;;;37.75;23.27;;;24.70;99.90;;;;;;5112842;28;20078;-66
2023/09/12 08:45:45;;;;;;;42.55;24.95;;;24.80;99.90;;;;;;5106658;28;20024;-66
2023/09/12 08:48:12;;;;;;;44.97;24.33;;;24.80;99.90;;;;;;5114935;28;20035;-64
2023/09/12 08:50:38;;;;;;;39.17;23.45;;;24.60;99.90;;;;;;5113087;28;20368;-65
2023/09/12 08:53:04;;;;;;;41.10;23.83;;;24.80;99.90;;;;;;5116768;28;20032;-65
2023/09/12 08:55:31;;;;;;;34.55;20.95;;;24.90;99.90;;;;;;5105326;28;20024;-66
2023/09/12 08:57:58;;;;;;;33.25;19.83;;;25.00;99.90;;;;;;5103437;28;20033;-66
2023/09/12 09:00:24;;;;;;;34.33;21.48;;;25.20;99.90;;;;;;5106806;28;20119;-66
2023/09/12 09:02:50;;;;;;;36.03;20.92;;;25.40;99.90;;;;;;5105295;28;20039;-65
2023/09/12 09:05:17;;;;;;;37.25;20.38;;;25.50;99.90;;;;;;5108925;28;20027;-64
2023/09/12 09:07:43;;;;;;;34.00;20.85;;;25.50;99.90;;;;;;5108602;28;20024;-66
2023/09/12 09:10:16;;;;;;;32.92;19.85;;;25.60;99.90;;;;;;5108664;28;20028;-64
2023/09/12 09:12:45;;;;;;;32.97;20.83;;;25.70;99.90;;;;;;5106192;28;20188;-66
2023/09/12 09:15:28;;;;;;;30.83;19.40;;;25.90;99.90;;;;;;5101936;28;20107;-65
2023/09/12 09:17:55;;;;;;;28.70;17.25;;;25.90;99.90;;;;;;5101726;28;20380;-65
2023/09/12 09:20:30;;;;;;;29.63;17.90;;;25.90;99.90;;;;;;5101316;28;20024;-65
2023/09/12 09:23:06;;;;;;;33.33;20.00;;;26.00;99.90;;;;;;5101036;28;20031;-65
2023/09/12 09:25:32;;;;;;;34.28;18.08;;;25.90;99.90;;;;;;5101666;28;20085;-65
2023/09/12 09:27:58;;;;;;;33.63;19.60;;;25.90;99.90;;;;;;5102259;28;20115;-65
2023/09/12 09:30:44;;;;;;;32.28;18.33;;;25.80;99.90;;;;;;5111670;28;20117;-66
2023/09/12 09:33:11;;;;;;;31.77;17.70;;;25.80;99.90;;;;;;5116181;28;20043;-66
2023/09/12 09:35:38;;;;;;;26.67;17.00;;;25.70;99.90;;;;;;5115901;28;20038;-66
2023/09/12 09:38:06;;;;;;;30.48;18.17;;;25.70;99.90;;;;;;5115905;28;20056;-66
2023/09/12 09:40:33;;;;;;;24.50;13.90;;;25.70;99.90;;;;;;5114540;28;20483;-66
2023/09/12 09:43:00;;;;;;;21.83;11.60;;;25.70;99.90;;;;;;5115990;27;20024;-66
2023/09/12 09:45:27;;;;;;;23.42;12.05;;;25.60;99.90;;;;;;5115499;28;20028;-65
2023/09/12 09:47:57;;;;;;;25.25;12.73;;;25.60;99.90;;;;;;5115832;28;20383;-64
2023/09/12 09:50:23;;;;;;;24.52;12.35;;;25.50;99.90;;;;;;5115410;28;20136;-65
2023/09/12 09:52:54;;;;;;;21.52;12.68;;;25.40;99.90;;;;;;5115672;28;20479;-66
2023/09/12 09:55:20;;;;;;;23.60;12.60;;;25.40;99.90;;;;;;5116066;27;20472;-65
2023/09/12 09:57:45;;;;;;;22.17;12.48;;;25.40;99.90;;;;;;5114459;28;20039;-65
2023/09/12 10:00:14;;;;;;;24.52;13.68;;;25.60;99.90;;;;;;5115968;28;20020;-65
2023/09/12 10:02:41;;;;;;;22.95;11.60;;;25.80;99.90;;;;;;5105298;28;20085;-66
2023/09/12 10:05:09;;;;;;;22.23;11.00;;;26.00;99.90;;;;;;5095014;28;20028;-66
2023/09/12 10:07:37;;;;;;;24.23;11.65;;;26.10;99.90;;;;;;5095162;28;20028;-65
2023/09/12 10:10:04;;;;;;;21.38;9.70;;;26.20;99.90;;;;;;5095025;28;20024;-66
2023/09/12 10:12:35;;;;;;;21.08;9.77;;;26.20;99.90;;;;;;5095281;28;20044;-65
2023/09/12 10:15:03;;;;;;;20.35;10.30;;;26.20;99.90;;;;;;5095263;28;20111;-66
2023/09/12 10:17:36;;;;;;;17.63;8.52;;;26.20;99.90;;;;;;5095323;28;20043;-65
2023/09/12 10:20:12;;;;;;;16.48;8.10;;;26.20;99.90;;;;;;5094353;28;20020;-65
2023/09/12 10:22:43;;;;;;;19.40;8.40;;;26.30;99.90;;;;;;5095099;28;20069;-65
2023/09/12 10:25:11;;;;;;;20.95;8.77;;;26.30;99.90;;;;;;5095102;28;20028;-65
2023/09/12 10:27:37;;;;;;;18.33;7.60;;;26.20;99.90;;;;;;5094903;28;20036;-67
2023/09/12 10:30:04;;;;;;;16.73;7.50;;;26.20;99.90;;;;;;5094716;28;20028;-67
2023/09/12 10:32:31;;;;;;;17.35;8.73;;;26.20;99.90;;;;;;5094795;28;20040;-65
2023/09/12 10:34:59;;;;;;;14.50;7.13;;;26.30;99.90;;;;;;5094839;28;20067;-65
2023/09/12 10:37:28;;;;;;;17.75;7.50;;;26.70;99.90;;;;;;5094688;28;20031;-66
2023/09/12 10:39:54;;;;;;;16.63;6.78;;;27.20;99.90;;;;;;5094897;28;20048;-66
2023/09/12 10:42:21;;;;;;;14.70;6.90;;;27.60;99.90;;;;;;5095014;28;20031;-66
2023/09/12 10:44:47;;;;;;;13.52;6.05;;;28.00;99.90;;;;;;5094975;28;20089;-66
2023/09/12 10:47:14;;;;;;;10.68;5.50;;;28.40;99.90;;;;;;5094888;28;20028;-65
2023/09/12 10:49:42;;;;;;;13.73;6.32;;;28.70;99.90;;;;;;5093884;28;20050;-65
2023/09/12 10:52:08;;;;;;;13.50;5.72;;;29.20;99.90;;;;;;5094026;28;20123;-66
2023/09/12 10:54:39;;;;;;;15.13;6.25;;;29.50;99.90;;;;;;5094764;28;20125;-65
2023/09/12 10:57:13;;;;;;;16.25;6.65;;;29.70;99.90;;;;;;5092610;28;20502;-65
2023/09/12 11:00:13;;;;;;;14.45;6.43;;;29.70;99.90;;;;;;5094456;28;20031;-66
2023/09/12 11:02:39;;;;;;;15.63;6.38;;;29.70;99.90;;;;;;5104307;28;20486;-66
2023/09/12 11:05:27;;;;;;;14.20;6.07;;;29.80;99.90;;;;;;5114895;28;20028;-66
2023/09/12 11:07:59;;;;;;;11.55;5.05;;;30.10;99.90;;;;;;5108408;28;20020;-65
2023/09/12 11:10:26;;;;;;;14.82;6.00;;;30.40;99.90;;;;;;5092793;28;20103;-66
2023/09/12 11:12:56;;;;;;;14.75;5.38;;;30.70;99.90;;;;;;5093748;28;20093;-65
2023/09/12 11:15:25;;;;;;;13.23;5.33;;;31.30;99.90;;;;;;5104206;28;20019;-66
2023/09/12 11:18:04;;;;;;;14.32;5.35;;;32.40;99.80;;;;;;5111779;28;20727;-66
2023/09/12 11:20:50;;;;;;;9.55;4.70;;;33.30;99.20;;;;;;5111700;28;20027;-66
2023/09/12 11:23:16;;;;;;;14.10;4.95;;;33.90;97.40;;;;;;5110929;28;20475;-66
2023/09/12 11:25:43;;;;;;;9.27;4.38;;;34.50;97.80;;;;;;5111990;28;20034;-66
2023/09/12 11:28:09;;;;;;;11.13;4.57;;;34.70;96.80;;;;;;5111435;28;20455;-66
2023/09/12 11:30:34;;;;;;;10.20;4.35;;;34.60;96.60;;;;;;5111592;28;20031;-65
2023/09/12 11:33:04;;;;;;;10.63;5.60;;;35.10;95.80;;;;;;5110746;28;20027;-66
2023/09/12 11:35:30;;;;;;;11.38;4.45;;;35.80;94.90;;;;;;5106980;28;20024;-66
2023/09/12 11:37:57;;;;;;;10.57;3.72;;;36.60;94.70;;;;;;5095881;28;20052;-66
2023/09/12 11:40:42;;;;;;;10.35;3.78;;;37.60;93.60;;;;;;5094007;28;20028;-66
2023/09/12 11:43:19;;;;;;;7.53;3.40;;;37.70;92.00;;;;;;5094048;28;20028;-67
2023/09/12 11:45:46;;;;;;;9.73;3.50;;;37.50;91.20;;;;;;5093982;28;20028;-67
2023/09/12 11:48:12;;;;;;;9.68;3.97;;;37.10;91.30;;;;;;5093122;28;20035;-65
2023/09/12 11:50:39;;;;;;;11.70;3.72;;;37.00;91.60;;;;;;5093181;28;20024;-66
2023/09/12 11:53:06;;;;;;;6.53;3.28;;;37.20;91.90;;;;;;5093923;28;20046;-67
2023/09/12 11:55:56;;;;;;;9.00;3.50;;;37.00;91.60;;;;;;5092912;28;20039;-66
2023/09/12 11:58:22;;;;;;;10.70;3.30;;;36.60;91.90;;;;;;5093394;28;20022;-65
2023/09/12 12:00:50;;;;;;;9.00;3.67;;;36.20;91.80;;;;;;5092926;28;20024;-65
2023/09/12 12:03:17;;;;;;;6.63;2.90;;;35.70;91.90;;;;;;5107443;28;20360;-66
2023/09/12 12:05:43;;;;;;;8.02;3.40;;;35.10;92.30;;;;;;5113456;28;20038;-66
2023/09/12 12:08:10;;;;;;;8.95;3.65;;;34.50;92.80;;;;;;5113065;28;20024;-66
2023/09/12 12:10:38;;;;;;;10.35;3.90;;;34.10;93.30;;;;;;5113081;28;20054;-66
2023/09/12 12:13:03;;;;;;;11.80;3.60;;;33.60;93.50;;;;;;5113060;28;20551;-66
2023/09/12 12:15:29;;;;;;;9.55;4.05;;;33.10;94.30;;;;;;5112676;28;20118;-66
2023/09/12 12:17:55;;;;;;;8.80;3.78;;;32.80;94.40;;;;;;5113528;28;20046;-66
2023/09/12 12:20:22;;;;;;;11.88;4.32;;;32.50;94.60;;;;;;5116399;28;20031;-66
2023/09/12 12:22:51;;;;;;;11.00;4.40;;;32.30;94.80;;;;;;5119643;27;20072;-67
2023/09/12 12:25:17;;;;;;;9.32;4.20;;;31.90;94.90;;;;;;5120375;27;20085;-66
2023/09/12 12:27:42;;;;;;;11.02;4.00;;;31.60;95.10;;;;;;5120192;28;20024;-65
2023/09/12 12:30:11;;;;;;;7.63;4.03;;;31.40;95.50;;;;;;5120370;28;20028;-65
2023/09/12 12:32:46;;;;;;;11.75;4.75;;;31.20;95.90;;;;;;5119328;28;20040;-66
2023/09/12 12:35:21;;;;;;;10.95;4.25;;;31.10;96.00;;;;;;5120581;27;20465;-67
2023/09/12 12:37:49;;;;;;;9.90;4.45;;;31.00;96.20;;;;;;5120108;27;20028;-67
2023/09/12 12:40:15;;;;;;;13.27;4.78;;;31.10;96.30;;;;;;5119862;27;20059;-66
2023/09/12 12:42:42;;;;;;;9.45;4.68;;;31.30;96.20;;;;;;5120226;27;20024;-66
2023/09/12 12:45:15;;;;;;;10.52;4.40;;;31.40;95.90;;;;;;5120234;27;20027;-66
2023/09/12 12:47:41;;;;;;;13.85;5.05;;;31.50;95.90;;;;;;5120466;27;20023;-66
2023/09/12 12:50:14;;;;;;;14.13;5.47;;;31.60;95.80;;;;;;5120425;27;20542;-66
2023/09/12 12:52:39;;;;;;;10.65;4.50;;;31.90;95.60;;;;;;5119865;27;20035;-66
2023/09/12 12:55:12;;;;;;;13.27;4.68;;;32.30;95.00;;;;;;5120534;28;20027;-66
2023/09/12 12:57:39;;;;;;;10.07;4.40;;;32.70;94.80;;;;;;5120183;27;20055;-66
2023/09/12 13:00:10;;;;;;;10.85;4.00;;;32.80;94.30;;;;;;5119841;27;20064;-66
2023/09/12 13:02:37;;;;;;;9.48;5.07;;;32.90;94.30;;;;;;5110046;27;20040;-66
2023/09/12 13:05:02;;;;;;;9.63;4.70;;;32.80;94.10;;;;;;5104354;28;20442;-67
2023/09/12 13:07:28;;;;;;;10.73;4.07;;;32.70;94.10;;;;;;5099613;28;20127;-66
2023/09/12 13:09:53;;;;;;;8.18;3.80;;;32.60;94.10;;;;;;5098460;28;20028;-67
2023/09/12 13:12:20;;;;;;;9.05;3.83;;;32.50;94.10;;;;;;5098802;28;20032;-68
2023/09/12 13:14:46;;;;;;;8.50;3.35;;;32.30;94.00;;;;;;5101359;28;20028;-67
2023/09/12 13:17:12;;;;;;;10.68;3.47;;;32.20;93.70;;;;;;5099551;28;20028;-66
2023/09/12 13:19:37;;;;;;;8.38;3.60;;;32.00;93.40;;;;;;5099501;28;20028;-67
2023/09/12 13:22:03;;;;;;;7.30;3.50;;;31.90;93.70;;;;;;5099006;28;20459;-65
2023/09/12 13:24:28;;;;;;;6.65;3.60;;;31.90;94.00;;;;;;5099376;28;20024;-66
2023/09/12 13:26:54;;;;;;;6.82;3.45;;;31.80;94.00;;;;;;5099376;28;20031;-67
2023/09/12 13:29:19;;;;;;;8.15;3.30;;;31.80;94.00;;;;;;5099379;28;20095;-65
2023/09/12 13:31:45;;;;;;;8.27;3.25;;;31.90;93.80;;;;;;5097563;28;20463;-67
2023/09/12 13:34:11;;;;;;;8.40;3.20;;;31.80;93.70;;;;;;5095876;28;20028;-67
2023/09/12 13:36:36;;;;;;;5.20;2.92;;;31.70;93.70;;;;;;5095895;28;20028;-67
2023/09/12 13:39:03;;;;;;;9.45;3.05;;;31.60;93.80;;;;;;5109338;28;20058;-66
2023/09/12 13:41:29;;;;;;;8.10;3.65;;;31.60;93.80;;;;;;5108888;28;20027;-66
2023/09/12 13:43:55;;;;;;;9.32;3.40;;;31.50;93.90;;;;;;5106991;28;20020;-66
2023/09/12 13:46:20;;;;;;;9.10;3.45;;;31.40;94.00;;;;;;5107370;28;20024;-66
2023/09/12 13:48:46;;;;;;;10.57;3.30;;;31.50;94.20;;;;;;5105405;28;20019;-66
2023/09/12 13:51:12;;;;;;;9.18;3.75;;;31.50;94.20;;;;;;5108148;28;20102;-65
2023/09/12 13:53:39;;;;;;;7.28;3.47;;;31.50;94.10;;;;;;5109755;28;20062;-67
2023/09/12 13:56:06;;;;;;;8.82;3.13;;;31.50;94.50;;;;;;5111989;28;20020;-67
2023/09/12 13:58:32;;;;;;;7.80;2.95;;;31.40;94.40;;;;;;5111992;28;20034;-66
2023/09/12 14:00:58;;;;;;;6.78;3.65;;;31.30;94.40;;;;;;5111909;28;20031;-67